This is the latest recevied weather packets stored in our database for station/object HB9BHU-8. If no packets are shown the sender has not sent any weather packets the latest 10 day(s).
| Time | Temp. | Humidity | Pressure | Rain* | Wind** | Luminosity | Snow |
|---|---|---|---|---|---|---|---|
| 1777062644 | 14.44° C | 43% | 1020.4 hPa | 0 mm | - | - | - |
| 1777060843 | 16.11° C | 38% | 1020.4 hPa | 0 mm | - | - | - |
| 1777059042 | 16.11° C | 38% | 1020.4 hPa | 0 mm | - | - | - |
| 1777057251 | 17.78° C | 34% | 1020.2 hPa | 0 mm | - | - | - |
| 1777042830 | 22.78° C | 20% | 1020.7 hPa | 0 mm | - | - | - |
| 1777039219 | 22.22° C | 21% | 1021.2 hPa | 0 mm | - | - | - |
| 1777037414 | 20.56° C | 22% | 1021.4 hPa | 0 mm | - | - | - |
| 1777035614 | 21.11° C | 27% | 1021.7 hPa | 0 mm | - | - | - |
| 1777033808 | 20° C | 29% | 1021.9 hPa | 0 mm | - | - | - |
| 1777031161 | 19.44° C | 31% | 1022.2 hPa | 0 mm | - | - | - |
| 1777023041 | 17.22° C | 43% | 1022.9 hPa | 0 mm | - | - | - |
| 1777017614 | 11.11° C | 57% | 1023.2 hPa | 0 mm | - | - | - |
| 1777016712 | 10° C | 62% | 1023.2 hPa | 0 mm | - | - | - |
| 1777005941 | 5° C | 69% | 1023.8 hPa | 0 mm | - | - | - |
| 1777004134 | 6.11° C | 66% | 1023.7 hPa | 0 mm | - | - | - |
| 1777001431 | 6.11° C | 64% | 1023.8 hPa | 0 mm | - | - | - |
| 1776997820 | 8.89° C | 50% | 1023.9 hPa | 0 mm | - | - | - |
| 1776989703 | 12.22° C | 42% | 1024.8 hPa | 0 mm | - | - | - |
| 1776987060 | 12.22° C | 40% | 1025 hPa | 0 mm | - | - | - |
| 1776983462 | 12.78° C | 38% | 1025.2 hPa | 0 mm | - | - | - |
| 1776982551 | 11.11° C | 41% | 1025.2 hPa | 0 mm | - | - | - |
| 1776978952 | 11.67° C | 43% | 1025.2 hPa | 0 mm | - | - | - |
| 1776978051 | 11.67° C | 41% | 1025.2 hPa | 0 mm | - | - | - |
| 1776977146 | 11.67° C | 42% | 1025.1 hPa | 0 mm | - | - | - |
* Rain latest hour (hover to see other rain measurements)
** Current wind speed in m/s (hover to see current wind gust speed)